createdAt,value
2022-12-23T00:12:51.474Z,90.2
2022-12-23T00:32:51.471Z,91.1
2022-12-23T00:52:51.485Z,91.9
2022-12-23T01:12:51.494Z,92.4
2022-12-23T01:32:51.501Z,92.7
2022-12-23T01:52:51.445Z,92.9
2022-12-23T02:12:51.417Z,92.9
2022-12-23T02:32:51.434Z,92.8
2022-12-23T02:52:51.433Z,92.7
2022-12-23T03:12:51.444Z,91.7
2022-12-23T03:32:51.447Z,90.0
2022-12-23T03:52:51.353Z,89.1
2022-12-23T04:12:51.442Z,88.7
2022-12-23T04:32:51.348Z,90.0
2022-12-23T04:52:51.367Z,90.9
2022-12-23T05:12:51.368Z,90.8
2022-12-23T05:32:51.486Z,90.2
2022-12-23T05:52:51.296Z,91.1
2022-12-23T06:12:51.304Z,91.5
2022-12-23T06:32:51.384Z,91.5
2022-12-23T06:52:51.453Z,92.1
2022-12-23T07:12:51.393Z,92.4
2022-12-23T07:32:51.262Z,92.7
2022-12-23T07:52:51.308Z,92.7
2022-12-23T08:12:51.297Z,93.1
2022-12-23T08:32:51.410Z,93.2
2022-12-23T08:52:51.221Z,93.3
2022-12-23T09:12:51.388Z,93.3
2022-12-23T09:32:51.256Z,92.5
2022-12-23T09:52:51.269Z,92.3
2022-12-23T10:12:51.211Z,91.7
2022-12-23T10:32:51.329Z,91.1
2022-12-23T10:52:51.410Z,91.0
2022-12-23T11:12:51.139Z,90.3
2022-12-23T11:32:51.301Z,90.9
2022-12-23T11:52:51.377Z,91.5
2022-12-23T12:12:51.372Z,91.9
2022-12-23T12:32:51.358Z,92.5
2022-12-23T12:52:51.346Z,92.6
2022-12-23T13:12:51.275Z,91.8
2022-12-23T13:32:51.233Z,91.0
2022-12-23T13:52:51.206Z,91.9
2022-12-23T14:12:51.254Z,92.5
2022-12-23T14:32:51.306Z,92.8
2022-12-23T14:52:51.034Z,93.1
2022-12-23T15:12:51.218Z,93.2
2022-12-23T15:32:51.220Z,93.4
2022-12-23T15:52:51.161Z,93.4
2022-12-23T16:12:51.159Z,93.6
2022-12-23T16:32:51.200Z,93.7
2022-12-23T16:52:51.224Z,93.8
2022-12-23T17:12:51.102Z,93.8
2022-12-23T17:32:51.167Z,92.3
2022-12-23T17:52:51.159Z,90.6
2022-12-23T18:12:50.886Z,89.9
2022-12-23T18:32:50.901Z,90.5
2022-12-23T18:52:50.909Z,89.8
2022-12-23T19:12:50.985Z,89.8
2022-12-23T19:32:50.926Z,89.6
2022-12-23T19:52:51.018Z,88.7
2022-12-23T20:12:50.981Z,87.5
2022-12-23T20:32:50.872Z,86.2
2022-12-23T20:52:50.966Z,86.5
2022-12-23T21:12:50.790Z,91.4
2022-12-23T21:32:50.807Z,91.2
2022-12-23T21:52:50.814Z,92.1
2022-12-23T22:12:50.881Z,92.3
2022-12-23T22:32:50.727Z,92.0
2022-12-23T22:52:50.859Z,91.8
2022-12-23T23:12:50.769Z,91.4
2022-12-23T23:32:50.764Z,91.5
2022-12-23T23:52:50.771Z,92.4
